Map

Track Data

SID SEASON NUMBER BASIN SUBBASIN NAME ISO_TIME NATURE LAT LON WMO_WIND WMO_PRES WMO_AGENCY TRACK_TYPE DIST2LAND LANDFALL IFLAG USA_AGENCY USA_ATCF_ID USA_LAT USA_LON USA_RECORD USA_STATUS USA_WIND USA_PRES USA_SSHS USA_R34_NE USA_R34_SE USA_R34_SW USA_R34_NW USA_R50_NE USA_R50_SE USA_R50_SW USA_R50_NW USA_R64_NE USA_R64_SE USA_R64_SW USA_R64_NW USA_POCI USA_ROCI USA_RMW USA_EYE TOKYO_LAT TOKYO_LON TOKYO_GRADE TOKYO_WIND TOKYO_PRES TOKYO_R50_DIR TOKYO_R50_LONG TOKYO_R50_SHORT TOKYO_R30_DIR TOKYO_R30_LONG TOKYO_R30_SHORT TOKYO_LAND CMA_LAT CMA_LON CMA_CAT CMA_WIND CMA_PRES HKO_LAT HKO_LON HKO_CAT HKO_WIND HKO_PRES NEWDELHI_LAT NEWDELHI_LON NEWDELHI_GRADE NEWDELHI_WIND NEWDELHI_PRES NEWDELHI_CI NEWDELHI_DP NEWDELHI_POCI REUNION_LAT REUNION_LON REUNION_TYPE REUNION_WIND REUNION_PRES REUNION_TNUM REUNION_CI REUNION_RMW REUNION_R34_NE REUNION_R34_SE REUNION_R34_SW REUNION_R34_NW REUNION_R50_NE REUNION_R50_SE REUNION_R50_SW REUNION_R50_NW REUNION_R64_NE REUNION_R64_SE REUNION_R64_SW REUNION_R64_NW BOM_LAT BOM_LON BOM_TYPE BOM_WIND BOM_PRES BOM_TNUM BOM_CI BOM_RMW BOM_R34_NE BOM_R34_SE BOM_R34_SW BOM_R34_NW BOM_R50_NE BOM_R50_SE BOM_R50_SW BOM_R50_NW BOM_R64_NE BOM_R64_SE BOM_R64_SW BOM_R64_NW BOM_ROCI BOM_POCI BOM_EYE BOM_POS_METHOD BOM_PRES_METHOD NADI_LAT NADI_LON NADI_CAT NADI_WIND NADI_PRES WELLINGTON_LAT WELLINGTON_LON WELLINGTON_WIND WELLINGTON_PRES DS824_LAT DS824_LON DS824_STAGE DS824_WIND DS824_PRES TD9636_LAT TD9636_LON TD9636_STAGE TD9636_WIND TD9636_PRES TD9635_LAT TD9635_LON TD9635_WIND TD9635_PRES TD9635_ROCI NEUMANN_LAT NEUMANN_LON NEUMANN_CLASS NEUMANN_WIND NEUMANN_PRES MLC_LAT MLC_LON MLC_CLASS MLC_WIND MLC_PRES USA_GUST BOM_GUST BOM_GUST_PER REUNION_GUST REUNION_GUST_PER USA_SEAHGT USA_SEARAD_NE USA_SEARAD_SE USA_SEARAD_SW USA_SEARAD_NW STORM_SPEED STORM_DIR
1984247N27180 1984 74 EP CP MOKE 1984-09-02 18:00:00 NR 27.0000 180.000 main 2114 2103 O_____________ cphc 27.0000 -180.000 40 0 2 152
1984247N27180 1984 74 EP CP MOKE 1984-09-02 21:00:00 NR 26.8892 180.060 main 2103 2100 P_____________ 26.8579 -179.909 -1 2 152
1984247N27180 1984 74 EP CP MOKE 1984-09-03 00:00:00 NR 26.7913 180.122 main 2100 2089 P_____________ 26.7305 -179.817 -1 2 144
1984247N27180 1984 74 EP CP MOKE 1984-09-03 03:00:00 NR 26.7188 180.189 main 2089 2079 P_____________ 26.6325 -179.725 -1 2 131
1984247N27180 1984 74 EP CP MOKE 1984-09-03 06:00:00 NR 26.6847 180.263 main 2079 2079 P_____________ 26.5784 -179.631 -1 1 97
1984247N27180 1984 74 EP CP MOKE 1984-09-03 09:00:00 NR 26.7018 180.347 main 2079 2069 P_____________ 26.5830 -179.535 -1 2 58
1984247N27180 1984 74 EP CP MOKE 1984-09-03 12:00:00 NR 26.7826 180.443 main 2071 2061 P_____________ 26.6609 -179.437 -1 3 38
1984247N27180 1984 74 EP CP MOKE 1984-09-03 15:00:00 NR 26.9401 180.553 main 2054 2049 P_____________ 26.8269 -179.335 -1 5 28
1984247N27180 1984 74 EP CP MOKE 1984-09-03 18:00:00 NR 27.1870 180.680 main 2051 2044 P_____________ 27.0955 -179.229 -1 6 22
1984247N27180 1984 74 EP CP MOKE 1984-09-03 21:00:00 NR 27.5360 180.829 main 2049 2040 P_____________ 27.4817 -179.118 -1 9 19
1984247N27180 1984 74 EP CP MOKE 1984-09-04 00:00:00 NR 28.0000 181.000 40 cphc main 2043 2036 O_____________ cphc 28.0000 -179.000 40 0 11 17
1984247N27180 1984 74 EP CP MOKE 1984-09-04 03:00:00 NR 28.5761 181.195 main 2042 2040 P_____________ 28.6412 -178.870 42 -1 13 14
1984247N27180 1984 74 EP CP MOKE 1984-09-04 06:00:00 TS 29.2429 181.357 45 hurdat_epa main 2044 2044 O_________O___ hurdat_epa CP021984 29.3000 -178.700 TS 45 0 29.3000 -178.700 2 45 13 15
1984247N27180 1984 74 EP CP MOKE 1984-09-04 09:00:00 TS 29.8411 181.579 main 2049 2048 P_________P___ CP021984 29.8726 -178.450 TS 45 0 29.8503 -178.451 2 45 12 18
1984247N27180 1984 74 EP CP MOKE 1984-09-04 12:00:00 TS 30.4000 181.800 45 hurdat_epa main 2056 2051 O_________O___ hurdat_epa CP021984 30.4000 -178.200 TS 45 0 30.4000 -178.200 2 45 11 17
1984247N27180 1984 74 EP CP MOKE 1984-09-04 15:00:00 TS 30.9100 181.958 main 2061 2061 P_________P___ CP021984 30.8999 -178.027 TS 45 0 30.9252 -178.077 2 42 10 14
1984247N27180 1984 74 EP CP MOKE 1984-09-04 18:00:00 TS 31.4116 182.088 45 hurdat_epa main 2076 2076 O_________P___ hurdat_epa CP021984 31.4000 -177.900 TS 45 0 31.4503 -177.953 2 40 10 11
1984247N27180 1984 74 EP CP MOKE 1984-09-04 21:00:00 TS 31.9300 182.197 main 2092 2092 P_________P___ CP021984 31.9574 -177.800 TS 40 0 31.9753 -177.827 2 37 11 10
1984247N27180 1984 74 EP CP MOKE 1984-09-05 00:00:00 TS 32.4500 182.300 35 hurdat_epa main 2116 2110 O_________O___ hurdat_epa CP021984 32.5000 -177.700 TS 35 0 32.5000 -177.700 2 35 10 12
1984247N27180 1984 74 EP CP MOKE 1984-09-05 03:00:00 NR 32.9001 182.437 main 2130 2127 P_____________ CP021984 32.9726 -177.563 TS -1 2 10 15
1984247N27180 1984 74 EP CP MOKE 1984-09-05 06:00:00 NR 33.4000 182.600 cphc main 2143 O_____________ cphc 33.4000 -177.400 -1 2 10 16

About IBTrACS Database

This database is a web-friendly format of International Best Track Archive for Climate Stewardship (IBTrACS), a global best track data archive curated by NOAA dating back to 1842.

Updated: 2021-10-21